Dades meteomassalio
Diari Summary for Abril 16, 2017 Units:  English    Metric   Both
« Previous Day
Next Day »
Diari Semanal Mensual Anual Personalitzat
  Maxima: Minima: Mijana:
Temperatura: TemperatureC °F 9.8 °F 16 °F
Rosada: DewpointC °F 4.3 °F 5.8 °F
Humitat: Humidity % 29 % 53 %
Velocitat del vent: WindSpeedKMH mph 0.0 mph 9.9 mph
Racha vent: WindSpeedGustKMH mph - -
Vent:- - West
Pressio: PressurehPa in 1018.2 in -
Pluja: 0.0 in    
Historical Graphs
 
 
Tabular Data for Abril 16, 2017
Time Temperature Dew Point Pressure Wind Wind Speed Wind Gust Humidity Rainfall Rate (Hourly) solar Conditions
TemperatureC °F DewpointC °F PressurehPa in Calm     Humidity % HourlyPrecipMM in SolarRadiationWatts/m^2 W/m2 Conditions
00:00 14.7 °F 6.0 °F 1021.6 in WNW 14.8 mph 14.8 mph 56 % 0.0 in 0.0 W/m2 CLR
00:05 14.6 °F 6.1 °F 1021.6 in West 31.5 mph 31.5 mph 57 % 0.0 in 0.0 W/m2 CLR
00:10 14.5 °F 6.1 °F 1021.6 in West 20.4 mph 20.4 mph 57 % 0.0 in 0.0 W/m2 CLR
00:15 14.3 °F 6.2 °F 1021.6 in West 27.8 mph 27.8 mph 58 % 0.0 in 0.0 W/m2 CLR
00:20 14.3 °F 6.2 °F 1021.6 in WSW 35.4 mph 35.4 mph 58 % 0.0 in 0.0 W/m2 CLR
00:25 14.3 °F 6.2 °F 1021.6 in NW 31.5 mph 31.5 mph 58 % 0.0 in 0.0 W/m2 CLR
00:30 14.2 °F 6.3 °F 1021.9 in WNW 29.6 mph 29.6 mph 59 % 0.0 in 0.0 W/m2 CLR
00:35 14.1 °F 6.2 °F 1021.9 in WNW 31.5 mph 31.5 mph 59 % 0.0 in 0.0 W/m2 CLR
00:40 14.0 °F 6.1 °F 1021.9 in NW 24.1 mph 24.1 mph 59 % 0.0 in 0.0 W/m2 CLR
00:41 14.0 °F 6.1 °F 1021.9 in WNW 22.2 mph 22.2 mph 59 % 0.0 in 0.0 W/m2 CLR
00:46 13.8 °F 6.2 °F 1021.9 in NW 20.9 mph 20.9 mph 60 % 0.0 in 0.0 W/m2 CLR
00:51 13.8 °F 6.2 °F 1021.9 in WNW 24.1 mph 24.1 mph 60 % 0.0 in 0.0 W/m2 CLR
00:56 13.7 °F 6.1 °F 1021.9 in WNW 24.1 mph 24.1 mph 60 % 0.0 in 0.0 W/m2 CLR
01:01 13.7 °F 6.1 °F 1021.9 in WNW 25.9 mph 25.9 mph 60 % 0.0 in 0.0 W/m2 CLR
01:06 13.6 °F 6.2 °F 1022.2 in West 16.7 mph 16.7 mph 61 % 0.0 in 0.0 W/m2 CLR
01:11 13.5 °F 6.1 °F 1022.2 in NW 13.0 mph 13.0 mph 61 % 0.0 in 0.0 W/m2 CLR
01:16 13.4 °F 6.1 °F 1022.2 in WNW 16.1 mph 16.1 mph 61 % 0.0 in 0.0 W/m2 CLR
01:21 13.4 °F 6.3 °F 1022.6 in West 18.5 mph 18.5 mph 62 % 0.0 in 0.0 W/m2 CLR
01:26 13.3 °F 6.2 °F 1022.6 in West 12.9 mph 12.9 mph 62 % 0.0 in 0.0 W/m2 CLR
01:31 13.3 °F 6.2 °F 1022.9 in WNW 3.7 mph 3.7 mph 62 % 0.0 in 0.0 W/m2 CLR
01:36 13.2 °F 6.3 °F 1022.6 in West 14.8 mph 14.8 mph 63 % 0.0 in 0.0 W/m2 CLR
01:41 13.1 °F 6.2 °F 1022.6 in WNW 25.9 mph 25.9 mph 63 % 0.0 in 0.0 W/m2 CLR
01:46 13.1 °F 6.2 °F 1022.6 in West 16.7 mph 16.7 mph 63 % 0.0 in 0.0 W/m2 CLR
01:51 12.9 °F 6.3 °F 1022.6 in West 16.7 mph 16.7 mph 64 % 0.0 in 0.0 W/m2 CLR
01:56 12.9 °F 6.3 °F 1022.6 in West 22.2 mph 22.2 mph 64 % 0.0 in 0.0 W/m2 CLR
02:01 12.9 °F 6.3 °F 1022.9 in West 20.4 mph 20.4 mph 64 % 0.0 in 0.0 W/m2 CLR
02:06 12.8 °F 6.2 °F 1022.9 in West 16.7 mph 16.7 mph 64 % 0.0 in 0.0 W/m2 CLR
02:11 12.8 °F 6.1 °F 1022.9 in West 14.5 mph 14.5 mph 64 % 0.0 in 0.0 W/m2 CLR
02:16 12.7 °F 6.3 °F 1022.9 in WNW 18.5 mph 18.5 mph 65 % 0.0 in 0.0 W/m2 CLR
02:21 12.5 °F 6.1 °F 1022.9 in WNW 18.5 mph 18.5 mph 65 % 0.0 in 0.0 W/m2 CLR
02:26 12.4 °F 6.1 °F 1022.9 in NW 14.8 mph 14.8 mph 65 % 0.0 in 0.0 W/m2 CLR
02:31 12.4 °F 6.2 °F 1022.9 in WNW 14.8 mph 14.8 mph 66 % 0.0 in 0.0 W/m2 CLR
02:36 12.3 °F 6.2 °F 1022.9 in West 16.7 mph 16.7 mph 66 % 0.0 in 0.0 W/m2 CLR
02:41 12.3 °F 6.2 °F 1022.9 in WNW 18.5 mph 18.5 mph 66 % 0.0 in 0.0 W/m2 CLR
02:46 12.3 °F 6.1 °F 1022.9 in WSW 18.5 mph 18.5 mph 66 % 0.0 in 0.0 W/m2 CLR
02:51 12.3 °F 6.1 °F 1022.9 in West 14.8 mph 14.8 mph 66 % 0.0 in 0.0 W/m2 CLR
02:56 12.2 °F 6.1 °F 1022.9 in WNW 18.5 mph 18.5 mph 66 % 0.0 in 0.0 W/m2 CLR
03:01 12.2 °F 6.0 °F 1022.9 in West 16.7 mph 16.7 mph 66 % 0.0 in 0.0 W/m2 CLR
03:06 12.1 °F 5.9 °F 1022.9 in WNW 25.9 mph 25.9 mph 66 % 0.0 in 0.0 W/m2 CLR
03:11 12.1 °F 6.1 °F 1022.9 in West 14.8 mph 14.8 mph 67 % 0.0 in 0.0 W/m2 CLR
03:16 12.1 °F 6.1 °F 1022.9 in WSW 3.7 mph   67 % 0.0 in 0.0 W/m2 CLR
03:21 11.9 °F 5.9 °F 1022.9 in West 14.8 mph 14.8 mph 67 % 0.0 in 0.0 W/m2 CLR
03:26 11.8 °F 6.1 °F 1022.9 in WSW 5.6 mph 5.6 mph 68 % 0.0 in 0.0 W/m2 CLR
03:31 11.6 °F 5.9 °F 1022.9 in WSW 5.6 mph 5.6 mph 68 % 0.0 in 0.0 W/m2 CLR
03:36 11.5 °F 6.0 °F 1022.9 in WSW 5.6 mph 5.6 mph 69 % 0.0 in 0.0 W/m2 CLR
03:41 11.4 °F 5.9 °F 1023.2 in WSW 9.3 mph 9.3 mph 69 % 0.0 in 0.0 W/m2 CLR
03:46 11.4 °F 5.9 °F 1022.9 in West 6.4 mph 6.4 mph 69 % 0.0 in 0.0 W/m2 CLR
03:51 11.4 °F 6.1 °F 1022.9 in WNW 7.4 mph 7.4 mph 70 % 0.0 in 0.0 W/m2 CLR
03:56 11.4 °F 6.1 °F 1022.9 in WSW 18.5 mph 18.5 mph 70 % 0.0 in 0.0 W/m2 CLR
04:01 11.4 °F 6.1 °F 1022.9 in West 5.6 mph 5.6 mph 70 % 0.0 in 0.0 W/m2 CLR
04:06 11.3 °F 5.8 °F 1023.2 in WSW 5.6 mph 5.6 mph 69 % 0.0 in 0.0 W/m2 CLR
04:11 11.2 °F 5.9 °F 1023.2 in WSW 9.7 mph 9.7 mph 70 % 0.0 in 0.0 W/m2 CLR
04:16 11.2 °F 5.9 °F 1022.9 in West 14.8 mph 14.8 mph 70 % 0.0 in 0.0 W/m2 CLR
04:21 11.2 °F 5.9 °F 1022.9 in WSW 18.5 mph 18.5 mph 70 % 0.0 in 0.0 W/m2 CLR
04:26 11.2 °F 5.9 °F 1023.2 in West 9.7 mph 9.7 mph 70 % 0.0 in 0.0 W/m2 CLR
04:31 11.2 °F 5.9 °F 1022.9 in West 18.5 mph 18.5 mph 70 % 0.0 in 0.0 W/m2 CLR
04:36 11.2 °F 5.9 °F 1022.9 in WSW 18.5 mph 18.5 mph 70 % 0.0 in 0.0 W/m2 CLR
04:41 11.2 °F 5.9 °F 1023.2 in WSW 20.4 mph 20.4 mph 70 % 0.0 in 0.0 W/m2 CLR
04:46 11.2 °F 5.9 °F 1023.2 in WSW 16.7 mph 16.7 mph 70 % 0.0 in 0.0 W/m2 CLR
04:51 11.2 °F 5.9 °F 1022.9 in WNW 14.8 mph 14.8 mph 70 % 0.0 in 0.0 W/m2 CLR
04:56 11.2 °F 5.9 °F 1022.9 in West 14.5 mph 14.5 mph 70 % 0.0 in 0.0 W/m2 CLR
05:01 11.4 °F 6.1 °F 1022.9 in West 24.1 mph 24.1 mph 70 % 0.0 in 0.0 W/m2 CLR
05:06 11.4 °F 5.9 °F 1022.9 in West 14.8 mph 14.8 mph 69 % 0.0 in 0.0 W/m2 CLR
05:11 11.3 °F 5.8 °F 1022.9 in SW 5.6 mph   69 % 0.0 in 0.0 W/m2 CLR
05:16 11.3 °F 6.0 °F 1022.9 in West 20.4 mph 20.4 mph 70 % 0.0 in 0.0 W/m2 CLR
05:21 11.3 °F 6.1 °F 1022.9 in WSW 18.5 mph 18.5 mph 70 % 0.0 in 0.0 W/m2 CLR
05:26 11.3 °F 6.0 °F 1022.9 in SW 5.6 mph 5.6 mph 70 % 0.0 in 0.0 W/m2 CLR
05:31 11.2 °F 5.9 °F 1022.9 in WSW 14.5 mph 14.5 mph 70 % 0.0 in 0.0 W/m2 CLR
05:36 11.1 °F 6.1 °F 1022.9 in West 20.9 mph 20.9 mph 71 % 0.0 in 0.0 W/m2 CLR
05:41 11.2 °F 6.1 °F 1022.9 in West 24.1 mph 24.1 mph 71 % 0.0 in 0.0 W/m2 CLR
05:46 11.2 °F 6.1 °F 1022.9 in West 22.2 mph 22.2 mph 71 % 0.0 in 0.0 W/m2 CLR
05:51 11.1 °F 6.1 °F 1022.9 in West 16.7 mph 16.7 mph 71 % 0.0 in 0.0 W/m2 CLR
05:56 11.1 °F 6.0 °F 1022.9 in West 5.6 mph 5.6 mph 71 % 0.0 in 0.0 W/m2 CLR
06:01 11.0 °F 6.2 °F 1022.6 in West 14.8 mph 14.8 mph 72 % 0.0 in 0.0 W/m2 CLR
06:06 10.9 °F 6.1 °F 1022.9 in WSW 11.1 mph 11.1 mph 72 % 0.0 in 0.0 W/m2 CLR
06:11 10.8 °F 5.9 °F 1022.9 in WSW 11.1 mph 11.1 mph 72 % 0.0 in 0.0 W/m2 CLR
06:12 10.8 °F 5.9 °F 1022.9 in WSW 11.1 mph 11.1 mph 72 % 0.0 in 0.0 W/m2 CLR
06:17 10.6 °F 5.8 °F 1022.9 in WSW 5.6 mph 5.6 mph 72 % 0.0 in 0.0 W/m2 CLR
06:22 10.4 °F 5.8 °F 1022.9 in West 7.4 mph 7.4 mph 73 % 0.0 in 0.0 W/m2 CLR
06:27 10.4 °F 5.8 °F 1022.9 in SW 3.7 mph 3.7 mph 73 % 0.0 in 0.0 W/m2 CLR
06:32 10.3 °F 5.8 °F 1022.9 in SW 5.6 mph 5.6 mph 74 % 0.0 in 0.0 W/m2 CLR
06:37 10.1 °F 5.7 °F 1022.9 in WSW 5.6 mph 5.6 mph 74 % 0.0 in 0.0 W/m2 CLR
06:42 10.1 °F 5.6 °F 1022.9 in WSW 7.4 mph 7.4 mph 74 % 0.0 in 0.0 W/m2 CLR
06:47 10.1 °F 5.8 °F 1022.9 in WSW 7.4 mph 7.4 mph 75 % 0.0 in 0.0 W/m2 CLR
06:52 10.0 °F 5.8 °F 1023.2 in WSW 7.4 mph 7.4 mph 75 % 0.0 in 0.0 W/m2 CLR
06:57 9.9 °F 5.7 °F 1023.2 in WSW 8.0 mph 8.0 mph 75 % 0.0 in 0.0 W/m2 CLR
07:02 10.0 °F 5.8 °F 1023.2 in WSW 6.4 mph 6.4 mph 75 % 0.0 in 0.0 W/m2 CLR
07:07 9.9 °F 5.5 °F 1023.6 in SSW 3.2 mph 3.2 mph 74 % 0.0 in 0.0 W/m2 CLR
07:12 9.8 °F 5.6 °F 1023.6 in SW 3.7 mph 3.7 mph 75 % 0.0 in 0.0 W/m2 OVC
07:17 9.8 °F 5.6 °F 1023.6 in WSW 7.4 mph 7.4 mph 75 % 0.0 in 0.0 W/m2 OVC
07:22 9.8 °F 5.6 °F 1023.6 in SW 6.4 mph 6.4 mph 75 % 0.0 in 7.0 W/m2 OVC
07:27 9.8 °F 5.6 °F 1023.9 in Calm     75 % 0.0 in 11.0 W/m2 BKN
07:32 9.8 °F 5.6 °F 1023.9 in West 7.4 mph 7.4 mph 75 % 0.0 in 14.0 W/m2 BKN
07:37 9.9 °F 5.7 °F 1023.9 in WSW 5.6 mph 5.6 mph 75 % 0.0 in 16.0 W/m2 BKN
07:42 9.9 °F 5.7 °F 1023.9 in WSW 5.6 mph 5.6 mph 75 % 0.0 in 19.0 W/m2 BKN
07:47 9.9 °F 5.7 °F 1023.9 in WSW 4.8 mph 4.8 mph 75 % 0.0 in 23.0 W/m2 BKN
07:52 9.9 °F 5.7 °F 1023.9 in WSW 7.4 mph 7.4 mph 75 % 0.0 in 32.0 W/m2 BKN
07:57 10.0 °F 5.8 °F 1023.9 in WSW 7.4 mph 7.4 mph 75 % 0.0 in 40.0 W/m2 BKN
08:02 10.1 °F 5.8 °F 1024.3 in WSW 7.4 mph 7.4 mph 75 % 0.0 in 51.0 W/m2 SCT
08:07 10.2 °F 5.7 °F 1024.3 in WSW 8.0 mph 8.0 mph 74 % 0.0 in 63.0 W/m2 SCT
08:12 10.3 °F 5.9 °F 1024.3 in SW 5.6 mph 5.6 mph 74 % 0.0 in 62.0 W/m2 SCT
08:18 10.5 °F 6.1 °F 1024.3 in WSW 5.6 mph   74 % 0.0 in 91.0 W/m2 CLR
08:23 10.6 °F 6.2 °F 1024.3 in WSW 8.0 mph 8.0 mph 74 % 0.0 in 109.0 W/m2 CLR
08:28 10.8 °F 6.1 °F 1024.3 in WSW 7.4 mph 7.4 mph 73 % 0.0 in 127.0 W/m2 CLR
08:33 10.9 °F 6.1 °F 1024.3 in SW 7.4 mph 7.4 mph 72 % 0.0 in 148.0 W/m2 CLR
08:38 11.2 °F 6.1 °F 1024.3 in WSW 9.3 mph 9.3 mph 71 % 0.0 in 163.0 W/m2 CLR
08:43 11.3 °F 6.3 °F 1024.3 in SW 9.3 mph 9.3 mph 71 % 0.0 in 183.0 W/m2 CLR
08:48 11.6 °F 6.3 °F 1024.3 in WSW 11.3 mph 11.3 mph 70 % 0.0 in 200.0 W/m2 CLR
08:53 11.8 °F 6.3 °F 1024.3 in West 7.4 mph 7.4 mph 69 % 0.0 in 220.0 W/m2 CLR
08:58 12.0 °F 6.3 °F 1024.3 in West 11.1 mph 11.1 mph 68 % 0.0 in 236.0 W/m2 CLR
09:03 12.1 °F 6.2 °F 1024.3 in WNW 13.0 mph 13.0 mph 67 % 0.0 in 51.0 W/m2 CLR
09:08 12.3 °F 6.4 °F 1024.3 in West 13.0 mph 13.0 mph 67 % 0.0 in 260.0 W/m2 CLR
09:13 12.4 °F 6.2 °F 1024.3 in NW 20.4 mph 20.4 mph 66 % 0.0 in 288.0 W/m2 CLR
09:18 12.5 °F 6.3 °F 1024.3 in NW 18.5 mph 18.5 mph 66 % 0.0 in 308.0 W/m2 CLR
09:23 12.6 °F 6.4 °F 1024.3 in WNW 13.0 mph 13.0 mph 66 % 0.0 in 323.0 W/m2 CLR
09:28 12.6 °F 6.2 °F 1024.3 in NNW 24.1 mph 24.1 mph 65 % 0.0 in 339.0 W/m2 CLR
09:33 12.6 °F 6.2 °F 1024.3 in NW 16.7 mph 16.7 mph 65 % 0.0 in 357.0 W/m2 CLR
09:38 12.7 °F 6.3 °F 1024.3 in NW 14.8 mph 14.8 mph 65 % 0.0 in 373.0 W/m2 CLR
09:43 12.9 °F 6.3 °F 1024.3 in WNW 20.9 mph 20.9 mph 64 % 0.0 in 388.0 W/m2 CLR
09:48 12.9 °F 6.3 °F 1024.3 in NW 12.9 mph 12.9 mph 64 % 0.0 in 408.0 W/m2 CLR
09:53 13.1 °F 6.4 °F 1024.3 in WNW 11.1 mph 11.1 mph 64 % 0.0 in 424.0 W/m2 CLR
09:58 13.1 °F 6.2 °F 1024.3 in NNW 11.1 mph 11.1 mph 63 % 0.0 in 439.0 W/m2 CLR
10:03 13.2 °F 6.1 °F 1024.3 in WSW 14.8 mph 14.8 mph 62 % 0.0 in 454.0 W/m2 CLR
10:08 13.4 °F 6.3 °F 1024.3 in WNW 24.1 mph 24.1 mph 62 % 0.0 in 475.0 W/m2 CLR
10:13 13.4 °F 6.5 °F 1024.3 in NW 20.9 mph 20.9 mph 63 % 0.0 in 487.0 W/m2 CLR
10:18 13.6 °F 6.4 °F 1024.3 in NW 16.1 mph 16.1 mph 62 % 0.0 in 503.0 W/m2 CLR
10:23 13.8 °F 6.4 °F 1024.3 in NW 20.4 mph 20.4 mph 61 % 0.0 in 517.0 W/m2 CLR
10:28 13.9 °F 6.5 °F 1023.9 in WNW 7.4 mph 7.4 mph 61 % 0.0 in 531.0 W/m2 CLR
10:34 14.0 °F 6.6 °F 1024.3 in WNW 9.7 mph 12.2 mph 61 % 0.0 in 548.0 W/m2 CLR
10:39 14.2 °F 6.3 °F 1024.3 in NW 22.2 mph 22.2 mph 59 % 0.0 in 564.0 W/m2 CLR
10:44 14.2 °F 6.6 °F 1024.3 in NNW 20.4 mph 20.4 mph 60 % 0.0 in 577.0 W/m2 CLR
10:49 14.4 °F 6.5 °F 1023.9 in WNW 22.2 mph 22.2 mph 59 % 0.0 in 591.0 W/m2 CLR
10:54 14.6 °F 6.4 °F 1024.3 in WNW 18.5 mph 18.5 mph 58 % 0.0 in 606.0 W/m2 CLR
10:59 14.8 °F 6.6 °F 1023.9 in NW 20.4 mph 20.4 mph 58 % 0.0 in 621.0 W/m2 CLR
11:04 14.6 °F 6.2 °F 1023.9 in NW 20.9 mph 20.9 mph 57 % 0.0 in 635.0 W/m2 CLR
11:09 14.8 °F 6.4 °F 1023.9 in West 18.5 mph 18.5 mph 57 % 0.0 in 645.0 W/m2 CLR
11:14 14.9 °F 6.5 °F 1023.9 in WNW 18.5 mph 18.5 mph 57 % 0.0 in 661.0 W/m2 CLR
11:19 15.2 °F 6.8 °F 1023.9 in NW 7.4 mph 7.4 mph 57 % 0.0 in 673.0 W/m2 CLR
11:24 15.4 °F 6.4 °F 1023.6 in NW 5.6 mph 5.6 mph 55 % 0.0 in 693.0 W/m2 CLR
11:29 15.7 °F 6.7 °F 1023.6 in NW 20.9 mph 20.9 mph 55 % 0.0 in 657.0 W/m2 CLR
11:34 15.6 °F 6.3 °F 1023.6 in NNW 14.8 mph 14.8 mph 54 % 0.0 in 686.0 W/m2 CLR
11:39 15.7 °F 6.4 °F 1023.6 in NW 20.4 mph 20.4 mph 54 % 0.0 in 717.0 W/m2 CLR
11:44 15.8 °F 6.5 °F 1023.6 in WNW 19.3 mph 19.3 mph 54 % 0.0 in 740.0 W/m2 CLR
11:49 15.8 °F 6.3 °F 1023.6 in NNW 8.0 mph 8.0 mph 53 % 0.0 in 758.0 W/m2 CLR
11:54 16.2 °F 7.1 °F 1023.6 in WNW 7.4 mph 7.4 mph 55 % 0.0 in 742.0 W/m2 CLR
11:59 16.4 °F 6.8 °F 1023.2 in NNW 16.1 mph 16.1 mph 53 % 0.0 in 747.0 W/m2 CLR
12:04 16.5 °F 6.6 °F 1023.2 in NW 9.3 mph 9.3 mph 52 % 0.0 in 765.0 W/m2 CLR
12:09 16.7 °F 6.8 °F 1023.2 in WNW 7.4 mph 7.4 mph 52 % 0.0 in 784.0 W/m2 CLR
12:14 16.9 °F 6.7 °F 1023.2 in WNW 1.9 mph 1.9 mph 51 % 0.0 in 796.0 W/m2 CLR
12:19 17.2 °F 6.7 °F 1023.2 in WNW 11.1 mph 11.1 mph 50 % 0.0 in 802.0 W/m2 CLR
12:24 17.4 °F 6.6 °F 1023.2 in NW 9.3 mph 9.3 mph 49 % 0.0 in 812.0 W/m2 CLR
12:29 17.5 °F 6.7 °F 1022.9 in NW 14.8 mph 14.8 mph 49 % 0.0 in 810.0 W/m2 CLR
12:34 17.5 °F 6.1 °F 1022.9 in Calm     47 % 0.0 in 816.0 W/m2 CLR
12:39 17.8 °F 6.9 °F 1022.9 in NW 20.4 mph 20.4 mph 49 % 0.0 in 763.0 W/m2 CLR
12:44 17.7 °F 6.3 °F 1022.9 in NW 3.7 mph 3.7 mph 47 % 0.0 in 735.0 W/m2 CLR
12:49 17.9 °F 6.4 °F 1022.9 in WNW 4.8 mph 4.8 mph 47 % 0.0 in 810.0 W/m2 CLR
12:54 18.0 °F 6.2 °F 1022.6 in WNW 18.5 mph 18.5 mph 46 % 0.0 in 837.0 W/m2 CLR
12:59 17.9 °F 6.4 °F 1022.6 in WNW 13.0 mph 13.0 mph 47 % 0.0 in 870.0 W/m2 CLR
13:04 18.2 °F 6.7 °F 1022.6 in NW 16.1 mph 16.1 mph 47 % 0.0 in 814.0 W/m2 CLR
13:09 18.5 °F 6.7 °F 1022.6 in NW 14.8 mph 14.8 mph 46 % 0.0 in 875.0 W/m2 CLR
13:14 18.7 °F 7.2 °F 1022.2 in WNW 17.7 mph 17.7 mph 47 % 0.0 in 821.0 W/m2 CLR
13:20 19.0 °F 6.4 °F 1022.2 in WNW 18.5 mph 18.5 mph 44 % 0.0 in 833.0 W/m2 CLR
13:22 19.1 °F 6.5 °F 1022.2 in WNW 9.7 mph 9.7 mph 44 % 0.0 in 740.0 W/m2 CLR
13:27 19.1 °F 6.6 °F 1022.2 in NNW 16.1 mph 16.1 mph 44 % 0.0 in 891.0 W/m2 CLR
13:32 19.3 °F 6.1 °F 1021.9 in NW 5.6 mph 5.6 mph 42 % 0.0 in 912.0 W/m2 CLR
13:37 19.4 °F 6.1 °F 1021.9 in NW 11.1 mph 11.1 mph 42 % 0.0 in 874.0 W/m2 CLR
13:42 19.7 °F 6.8 °F 1021.9 in NW 18.5 mph 18.5 mph 43 % 0.0 in 835.0 W/m2 CLR
13:47 19.7 °F 6.1 °F 1021.9 in NW 3.7 mph 3.7 mph 41 % 0.0 in 900.0 W/m2 CLR
13:52 19.8 °F 6.5 °F 1021.6 in NNW 7.4 mph 7.4 mph 42 % 0.0 in 904.0 W/m2 CLR
13:57 20.1 °F 6.4 °F 1021.6 in West 7.4 mph 7.4 mph 41 % 0.0 in 893.0 W/m2 CLR
14:02 20.1 °F 5.7 °F 1021.6 in WNW 13.0 mph 13.0 mph 39 % 0.0 in 809.0 W/m2 CLR
14:07 20.1 °F 6.1 °F 1021.6 in WNW 8.0 mph 8.0 mph 40 % 0.0 in 877.0 W/m2 CLR
14:12 20.2 °F 6.6 °F 1021.2 in Calm     41 % 0.0 in 900.0 W/m2 CLR
14:17 20.7 °F 7.0 °F 1021.2 in NW 6.4 mph 6.4 mph 41 % 0.0 in 872.0 W/m2 CLR
14:22 20.8 °F 7.1 °F 1021.2 in Calm     41 % 0.0 in 905.0 W/m2 CLR
14:27 21.1 °F 6.6 °F 1021.2 in North 3.7 mph 3.7 mph 39 % 0.0 in 896.0 W/m2 CLR
14:32 21.3 °F 6.8 °F 1021.2 in West 11.3 mph 11.3 mph 39 % 0.0 in 893.0 W/m2 CLR
14:37 21.4 °F 6.1 °F 1020.9 in West 7.4 mph 7.4 mph 37 % 0.0 in 888.0 W/m2 CLR
14:42 21.4 °F 6.1 °F 1020.9 in WSW 5.6 mph 5.6 mph 37 % 0.0 in 863.0 W/m2 CLR
14:47 21.5 °F 6.6 °F 1020.9 in NNE 5.6 mph 5.6 mph 38 % 0.0 in 868.0 W/m2 CLR
14:52 21.6 °F 6.6 °F 1020.9 in NNE 3.7 mph 3.7 mph 38 % 0.0 in 865.0 W/m2 CLR
14:58 21.7 °F 6.7 °F 1020.5 in NW 11.3 mph 11.3 mph 38 % 0.0 in 867.0 W/m2 CLR
15:03 21.9 °F 6.1 °F 1020.9 in Calm   0.3 mph 36 % 0.0 in 858.0 W/m2 CLR
15:08 22.3 °F 6.9 °F 1020.5 in North 5.6 mph 5.6 mph 37 % 0.0 in 872.0 W/m2 CLR
15:13 22.6 °F 6.8 °F 1020.5 in West 5.6 mph 5.6 mph 36 % 0.0 in 853.0 W/m2 CLR
15:18 22.7 °F 6.9 °F 1020.5 in NW 14.8 mph 14.8 mph 36 % 0.0 in 853.0 W/m2 CLR
15:23 22.7 °F 6.0 °F 1020.5 in Calm     34 % 0.0 in 844.0 W/m2 CLR
15:28 22.9 °F 5.3 °F 1020.2 in West 13.0 mph 13.0 mph 32 % 0.0 in 842.0 W/m2 CLR
15:33 22.7 °F 5.2 °F 1020.2 in Calm     32 % 0.0 in 838.0 W/m2 CLR
15:38 23.0 °F 6.7 °F 1020.2 in NNW 1.6 mph 1.6 mph 35 % 0.0 in 816.0 W/m2 CLR
15:43 23.1 °F 5.9 °F 1020.2 in ENE 13.0 mph 13.0 mph 33 % 0.0 in 819.0 W/m2 CLR
15:48 23.2 °F 6.4 °F 1019.9 in ENE 5.6 mph 5.6 mph 34 % 0.0 in 807.0 W/m2 CLR
15:53 23.4 °F 6.2 °F 1019.9 in ENE 13.0 mph 13.0 mph 33 % 0.0 in 795.0 W/m2 CLR
15:58 23.3 °F 6.2 °F 1019.9 in NNE 12.9 mph 12.9 mph 33 % 0.0 in 737.0 W/m2 CLR
16:03 23.1 °F 5.9 °F 1019.9 in NNW 13.0 mph 13.0 mph 33 % 0.0 in 759.0 W/m2 CLR
16:07 23.2 °F 5.6 °F 1019.5 in NE 14.8 mph 14.8 mph 32 % 0.0 in 777.0 W/m2 CLR
16:12 23.4 °F 5.8 °F 1019.5 in North 7.4 mph 7.4 mph 32 % 0.0 in 758.0 W/m2 CLR
16:17 23.4 °F 5.8 °F 1019.5 in NE 22.2 mph 22.2 mph 32 % 0.0 in 722.0 W/m2 CLR
16:22 23.2 °F 5.2 °F 1019.5 in North 11.1 mph 11.1 mph 31 % 0.0 in 693.0 W/m2 CLR
16:27 23.1 °F 4.6 °F 1019.5 in NNW 20.4 mph 20.4 mph 30 % 0.0 in 703.0 W/m2 CLR
16:32 23.1 °F 5.0 °F 1019.5 in ENE 6.4 mph 6.4 mph 31 % 0.0 in 722.0 W/m2 CLR
16:37 23.3 °F 4.7 °F 1019.5 in NNW 7.4 mph 7.4 mph 30 % 0.0 in 731.0 W/m2 CLR
16:42 23.4 °F 4.8 °F 1019.5 in NNE 5.6 mph 5.6 mph 30 % 0.0 in 722.0 W/m2 CLR
16:47 23.4 °F 4.8 °F 1019.2 in NE 5.6 mph 5.6 mph 30 % 0.0 in 710.0 W/m2 CLR
16:52 23.4 °F 4.3 °F 1019.2 in NNE 18.5 mph 18.5 mph 29 % 0.0 in 668.0 W/m2 CLR
16:57 23.2 °F 5.2 °F 1019.2 in NNE 18.5 mph 18.5 mph 31 % 0.0 in 666.0 W/m2 CLR
17:02 23.3 °F 4.8 °F 1019.2 in NNW 5.6 mph 5.6 mph 30 % 0.0 in 693.0 W/m2 CLR
17:07 23.5 °F 4.4 °F 1018.8 in NNW 11.1 mph 11.1 mph 29 % 0.0 in 512.0 W/m2 CLR
17:12 23.4 °F 4.3 °F 1018.8 in NNE 18.5 mph 18.5 mph 29 % 0.0 in 457.0 W/m2 CLR
17:17 23.0 °F 4.5 °F 1018.8 in NNW 18.5 mph 18.5 mph 30 % 0.0 in 292.0 W/m2 CLR
17:22 22.9 °F 4.8 °F 1018.8 in Calm     31 % 0.0 in 457.0 W/m2 CLR
17:27 23.0 °F 4.5 °F 1018.8 in NNW 5.6 mph 5.6 mph 30 % 0.0 in 471.0 W/m2 CLR
17:32 23.1 °F 4.6 °F 1018.8 in NW 1.9 mph 1.9 mph 30 % 0.0 in 513.0 W/m2 CLR
17:37 23.3 °F 4.3 °F 1018.8 in NNE 9.7 mph 9.7 mph 29 % 0.0 in 548.0 W/m2 CLR
17:42 23.4 °F 4.8 °F 1018.8 in NNW 11.1 mph 11.1 mph 30 % 0.0 in 501.0 W/m2 CLR
17:47 23.4 °F 4.3 °F 1018.8 in Calm     29 % 0.0 in 478.0 W/m2 CLR
17:52 23.4 °F 4.8 °F 1018.5 in NNW 13.0 mph 13.0 mph 30 % 0.0 in 438.0 W/m2 CLR
17:57 23.3 °F 4.8 °F 1018.8 in NNW 9.3 mph 9.3 mph 30 % 0.0 in 466.0 W/m2 CLR
18:02 23.3 °F 4.8 °F 1018.8 in Calm     30 % 0.0 in 471.0 W/m2 CLR
18:07 23.6 °F 4.9 °F 1018.5 in NNW 1.9 mph   30 % 0.0 in 473.0 W/m2 CLR
18:12 23.7 °F 5.1 °F 1018.5 in Calm     30 % 0.0 in 436.0 W/m2 CLR
18:17 23.6 °F 5.0 °F 1018.5 in North 11.1 mph 11.1 mph 30 % 0.0 in 355.0 W/m2 CLR
18:22 23.4 °F 4.8 °F 1018.5 in Calm     30 % 0.0 in 330.0 W/m2 CLR
18:27 23.5 °F 5.8 °F 1018.5 in Calm     32 % 0.0 in 250.0 W/m2 CLR
18:32 23.7 °F 5.1 °F 1018.5 in Calm     30 % 0.0 in 237.0 W/m2 CLR
18:37 23.7 °F 5.6 °F 1018.5 in NNE 11.1 mph 11.1 mph 31 % 0.0 in 302.0 W/m2 CLR
18:42 23.4 °F 5.8 °F 1018.5 in North 11.1 mph 11.1 mph 32 % 0.0 in 369.0 W/m2 CLR
18:47 23.4 °F 5.8 °F 1018.5 in North 7.4 mph 7.4 mph 32 % 0.0 in 237.0 W/m2 CLR
18:52 23.3 °F 6.2 °F 1018.5 in NNW 3.7 mph 3.7 mph 33 % 0.0 in 295.0 W/m2 CLR
18:57 23.4 °F 5.7 °F 1018.5 in North 4.8 mph 4.8 mph 32 % 0.0 in 316.0 W/m2 CLR
19:02 23.4 °F 6.2 °F 1018.5 in NW 5.6 mph   33 % 0.0 in 301.0 W/m2 CLR
19:07 23.4 °F 5.7 °F 1018.5 in NNW 7.4 mph 7.4 mph 32 % 0.0 in 287.0 W/m2 CLR
19:09 23.4 °F 5.7 °F 1018.5 in NNW 5.6 mph 5.6 mph 32 % 0.0 in 283.0 W/m2 CLR
19:14 23.2 °F 5.6 °F 1018.5 in North 5.6 mph 5.8 mph 32 % 0.0 in 267.0 W/m2 CLR
19:19 23.1 °F 5.9 °F 1018.5 in Calm     33 % 0.0 in 229.0 W/m2 CLR
19:24 23.1 °F 5.5 °F 1018.5 in Calm     32 % 0.0 in 204.0 W/m2 CLR
19:29 23.4 °F 5.3 °F 1018.5 in Calm     31 % 0.0 in 186.0 W/m2 CLR
19:34 23.4 °F 5.3 °F 1018.5 in Calm     31 % 0.0 in 163.0 W/m2 CLR
19:39 23.2 °F 5.2 °F 1018.5 in Calm     31 % 0.0 in 137.0 W/m2 CLR
19:44 23.2 °F 5.6 °F 1018.5 in Calm     32 % 0.0 in 118.0 W/m2 CLR
19:49 23.2 °F 5.1 °F 1018.2 in Calm     31 % 0.0 in 98.0 W/m2 CLR
19:54 23.1 °F 5.9 °F 1018.2 in Calm     33 % 0.0 in 79.0 W/m2 FEW
19:59 22.9 °F 5.8 °F 1018.2 in NW 3.7 mph   33 % 0.0 in 54.0 W/m2 SCT
20:04 22.7 °F 5.2 °F 1018.2 in NW 3.2 mph 3.2 mph 32 % 0.0 in 32.0 W/m2 BKN
20:09 22.3 °F 5.2 °F 1018.2 in NW 7.4 mph 7.4 mph 33 % 0.0 in 33.0 W/m2 BKN
20:14 21.9 °F 5.3 °F 1018.2 in NW 5.6 mph 5.6 mph 34 % 0.0 in 25.0 W/m2 BKN
20:19 21.6 °F 5.5 °F 1018.2 in Calm     35 % 0.0 in 21.0 W/m2 BKN
20:24 21.3 °F 5.2 °F 1018.2 in Calm     35 % 0.0 in 16.0 W/m2 BKN
20:29 21.1 °F 5.1 °F 1018.2 in Calm     35 % 0.0 in 11.0 W/m2 BKN
20:34 20.8 °F 5.2 °F 1018.2 in Calm     36 % 0.0 in 7.0 W/m2 BKN
20:39 20.3 °F 5.2 °F 1018.2 in Calm     37 % 0.0 in 5.0 W/m2 OVC
20:44 19.8 °F 5.1 °F 1018.2 in Calm     38 % 0.0 in 0.0 W/m2 OVC
20:49 19.3 °F 4.9 °F 1018.2 in Calm     39 % 0.0 in 0.0 W/m2 OVC
20:54 18.9 °F 5.1 °F 1018.2 in West 3.7 mph 3.7 mph 40 % 0.0 in 0.0 W/m2 CLR
20:59 18.7 °F 5.2 °F 1018.2 in Calm     41 % 0.0 in 0.0 W/m2 CLR
21:04 18.4 °F 4.9 °F 1018.5 in Calm     41 % 0.0 in 0.0 W/m2 CLR
21:09 18.3 °F 4.8 °F 1018.5 in Calm     41 % 0.0 in 0.0 W/m2 CLR
21:14 18.1 °F 4.9 °F 1018.5 in NW 7.4 mph 7.4 mph 42 % 0.0 in 0.0 W/m2 CLR
21:19 17.9 °F 4.8 °F 1018.5 in Calm     42 % 0.0 in 0.0 W/m2 CLR
21:24 17.9 °F 4.8 °F 1018.5 in Calm     42 % 0.0 in 0.0 W/m2 CLR
21:29 17.6 °F 5.2 °F 1018.5 in Calm     44 % 0.0 in 0.0 W/m2 CLR
21:34 17.3 °F 5.6 °F 1018.8 in Calm     46 % 0.0 in 0.0 W/m2 CLR
21:39 16.9 °F 5.6 °F 1018.8 in Calm     47 % 0.0 in 0.0 W/m2 CLR
21:44 16.6 °F 5.2 °F 1018.8 in Calm     47 % 0.0 in 0.0 W/m2 CLR
21:49 16.3 °F 5.3 °F 1018.8 in Calm     48 % 0.0 in 0.0 W/m2 CLR
21:54 16.1 °F 5.3 °F 1018.8 in Calm     49 % 0.0 in 0.0 W/m2 CLR
21:59 15.7 °F 5.3 °F 1018.8 in Calm     50 % 0.0 in 0.0 W/m2 CLR
22:04 15.5 °F 5.1 °F 1018.8 in Calm     50 % 0.0 in 0.0 W/m2 CLR
22:09 15.4 °F 5.0 °F 1019.2 in Calm     50 % 0.0 in 0.0 W/m2 CLR
22:14 15.3 °F 4.9 °F 1019.2 in Calm     50 % 0.0 in 0.0 W/m2 CLR
22:19 15.2 °F 5.4 °F 1019.2 in Calm     52 % 0.0 in 0.0 W/m2 CLR
22:24 14.9 °F 5.1 °F 1019.2 in Calm     52 % 0.0 in 0.0 W/m2 CLR
22:29 14.7 °F 5.2 °F 1019.2 in SW 3.7 mph 3.7 mph 53 % 0.0 in 0.0 W/m2 CLR
22:34 14.4 °F 5.2 °F 1019.2 in Calm     54 % 0.0 in 0.0 W/m2 CLR
22:39 14.1 °F 5.2 °F 1019.5 in Calm     55 % 0.0 in 0.0 W/m2 CLR
22:44 13.9 °F 5.0 °F 1019.5 in Calm     55 % 0.0 in 0.0 W/m2 CLR
22:49 13.8 °F 5.2 °F 1019.5 in Calm     56 % 0.0 in 0.0 W/m2 CLR
22:54 13.6 °F 5.0 °F 1019.5 in Calm     56 % 0.0 in 0.0 W/m2 CLR
22:59 13.3 °F 5.2 °F 1019.5 in Calm     58 % 0.0 in 0.0 W/m2 CLR
23:04 13.1 °F 5.0 °F 1019.5 in SSW 5.6 mph 5.6 mph 58 % 0.0 in 0.0 W/m2 CLR
23:09 12.8 °F 4.9 °F 1019.5 in SW 3.7 mph 3.7 mph 59 % 0.0 in 0.0 W/m2 CLR
23:14 12.6 °F 4.8 °F 1019.5 in SW 1.9 mph   59 % 0.0 in 0.0 W/m2 CLR
23:19 12.4 °F 4.8 °F 1019.5 in Calm     60 % 0.0 in 0.0 W/m2 CLR
23:24 12.3 °F 4.8 °F 1019.5 in Calm     60 % 0.0 in 0.0 W/m2 CLR
23:29 12.3 °F 4.7 °F 1019.5 in Calm     60 % 0.0 in 0.0 W/m2 CLR
23:34 12.2 °F 4.7 °F 1019.5 in Calm     60 % 0.0 in 0.0 W/m2 CLR
23:39 12.1 °F 4.8 °F 1019.5 in Calm     61 % 0.0 in 0.0 W/m2 CLR
23:44 12.0 °F 4.7 °F 1019.5 in SW 3.7 mph 3.7 mph 61 % 0.0 in 0.0 W/m2 CLR
23:49 11.9 °F 4.6 °F 1019.5 in Calm     61 % 0.0 in 0.0 W/m2 CLR
23:54 11.8 °F 4.7 °F 1019.9 in Calm     62 % 0.0 in 0.0 W/m2 CLR
23:59 11.7 °F 4.6 °F 1019.9 in SW 3.2 mph 3.2 mph 62 % 0.0 in 0.0 W/m2 CLR
Lo Temps de Massalio
Compliments of Weather Underground - 1.25 mb